Latest Weather Observations for Archerfield

IDQ60801

Issued at 1:32 pm EST Wednesday 22 April 2015 (issued every 30 minutes, with the page automatically refreshed every 10 minutes)

About weather observations | Map of weather stations | Latest weather observations for QLD | Other Formats
Station Details ID: 040211 Name: ARCHERFIELD AIRPORT Lat: -27.57 Lon: 153.01 Height: 12.5 m
Data from the previous 72 hours. | See also: Recent months at Archerfield
Date/Time
EST
Temp
°C
App
Temp
°C
Dew
Point
Rel
Hum
%
Delta-T
°C
Wind Press
QNH
hPa
Press
MSL
hPa
Rain
since 9 am
mm
Dir
 
Spd
km/h
Gust
km/h
Spd
kts
Gust
kts
22/01:30pm 22.5 19.1 10.6 47 6.5 W 19 28 10 15 1011.7 1011.6 0.0
22/01:00pm 22.4 18.6 11.2 49 6.2 WNW 22 33 12 18 1012.1 1012.0 0.0
22/12:30pm 22.1 19.3 11.2 50 6.0 WNW 17 28 9 15 1012.6 1012.5 0.0
22/12:00pm 21.2 17.8 10.7 51 5.7 W 19 28 10 15 1013.1 1013.0 0.0
22/11:30am 20.6 17.0 10.4 52 5.5 W 20 30 11 16 1013.5 1013.4 0.0
22/11:00am 19.7 15.6 10.1 54 5.2 WSW 22 32 12 17 1014.1 1014.0 0.0
22/10:30am 19.8 16.0 11.0 57 4.8 W 22 33 12 18 1014.4 1014.3 0.0
22/10:00am 19.1 15.9 11.2 60 4.3 WSW 19 30 10 16 1014.6 1014.5 0.0
22/09:30am 18.6 15.2 11.2 62 4.0 WSW 20 35 11 19 1014.7 1014.6 0.0
22/09:00am 17.3 11.7 10.2 63 3.8 W 30 39 16 21 1014.9 1014.8 0.0
22/08:44am 16.9 11.7 10.3 65 3.5 WSW 28 48 15 26 1015.0 1014.9 0.0
22/08:30am 16.8 12.0 10.4 66 3.4 W 26 37 14 20 1015.0 1014.9 0.0
22/08:00am 15.9 12.0 9.6 66 3.3 W 20 28 11 15 1015.0 1014.9 0.0
22/07:30am 14.9 12.1 9.9 72 2.6 WSW 15 22 8 12 1014.9 1014.8 0.0
22/07:00am 13.7 10.8 9.7 77 2.1 WSW 15 20 8 11 1014.9 1014.8 0.0
22/06:30am 12.2 9.9 9.0 81 1.6 SW 11 17 6 9 1014.7 1014.6 0.0
22/06:00am 11.9 9.6 8.9 82 1.5 SW 11 19 6 10 1014.7 1014.6 0.0
22/05:30am 12.2 9.1 9.0 81 1.6 WSW 15 19 8 10 1014.4 1014.3 0.0
22/05:00am 12.5 8.6 8.8 78 1.8 WSW 19 24 10 13 1014.0 1013.9 0.0
22/04:30am 12.5 8.3 8.4 76 2.0 WSW 20 26 11 14 1013.9 1013.8 0.0
22/04:00am 12.7 8.4 8.0 73 2.3 WSW 20 30 11 16 1013.7 1013.6 0.0
22/03:30am 12.2 8.0 7.5 73 2.3 WSW 19 28 10 15 1013.6 1013.5 0.0
22/03:00am 11.5 8.0 7.0 74 2.1 WSW 15 19 8 10 1013.7 1013.6 0.0
22/02:30am 12.6 9.0 6.6 67 2.9 W 15 19 8 10 1014.1 1014.0 0.0
22/02:00am 12.5 8.9 6.8 68 2.7 W 15 20 8 11 1014.3 1014.2 0.0
22/01:30am 12.6 11.8 6.4 66 2.9 CALM 0 7 0 4 1014.6 1014.5 0.0
22/01:00am 12.0 10.7 5.9 66 2.9 WNW 2 6 1 3 1014.8 1014.7 0.0
22/12:30am 13.1 11.0 6.7 65 3.1 SW 7 11 4 6 1015.2 1015.1 0.0
22/12:00am 12.5 10.0 6.5 67 2.9 SSE 9 13 5 7 1015.7 1015.6 0.0
 
Date/Time
EST
Temp
°C
App
Temp
°C
Dew
Point
Rel
Hum
%
Delta-T
°C
Wind Press
QNH
hPa
Press
MSL
hPa
Rain
since 9 am
mm
Dir
 
Spd
km/h
Gust
km/h
Spd
kts
Gust
kts
21/11:30pm 11.8 9.8 6.1 68 2.7 E 6 7 3 4 1016.0 1015.9 0.0
21/11:00pm 12.2 10.1 5.6 64 3.1 SSE 6 9 3 5 1016.2 1016.1 0.0
21/10:30pm 12.4 10.1 5.8 64 3.1 SE 7 11 4 6 1016.4 1016.3 0.0
21/10:00pm 13.5 9.3 5.9 60 3.6 WSW 17 22 9 12 1016.5 1016.4 0.0
21/09:30pm 13.6 9.4 5.7 59 3.7 W 17 22 9 12 1016.7 1016.6 0.0
21/09:00pm 14.0 9.2 5.6 57 4.0 WSW 20 28 11 15 1016.7 1016.6 0.0
21/08:30pm 14.5 9.7 5.6 55 4.2 WSW 20 26 11 14 1016.7 1016.6 0.0
21/08:00pm 15.1 10.2 5.3 52 4.6 WSW 20 32 11 17 1016.5 1016.4 0.0
21/07:30pm 14.6 11.2 5.7 55 4.2 WSW 13 22 7 12 1016.5 1016.4 0.0
21/07:00pm 15.3 11.1 5.5 52 4.7 WSW 17 22 9 12 1016.4 1016.3 0.0
21/06:30pm 15.5 12.0 5.4 51 4.8 WSW 13 22 7 12 1016.3 1016.2 0.0
21/06:00pm 16.2 12.0 5.5 49 5.1 WSW 17 28 9 15 1016.0 1015.9 0.0
21/05:30pm 16.9 12.7 5.5 47 5.5 WSW 17 24 9 13 1015.7 1015.6 0.0
21/05:00pm 17.9 13.3 6.4 47 5.7 WSW 20 30 11 16 1015.5 1015.4 0.0
21/04:30pm 18.7 13.4 6.9 46 5.9 WSW 24 32 13 17 1015.2 1015.1 0.0
21/04:00pm 19.0 12.6 6.8 45 6.1 W 30 39 16 21 1015.2 1015.1 0.0
21/03:30pm 19.2 12.4 7.0 45 6.2 W 32 43 17 23 1015.1 1015.0 0.0
21/03:00pm 19.4 13.3 6.8 44 6.3 WSW 28 43 15 23 1015.1 1015.0 0.0
21/02:31pm 19.5 12.6 6.6 43 6.5 W 32 50 17 27 1015.1 1015.0 0.0
21/02:30pm 19.5 12.6 6.6 43 6.5 W 32 46 17 25 1015.1 1015.0 0.0
21/02:00pm 19.8 13.6 7.9 46 6.1 W 30 43 16 23 1015.2 1015.1 0.0
21/01:30pm 20.5 14.8 8.5 46 6.3 W 28 41 15 22 1015.4 1015.3 0.0
21/01:00pm 20.3 13.8 8.0 45 6.4 W 32 39 17 21 1015.8 1015.7 0.0
21/12:30pm 20.4 13.7 7.4 43 6.7 W 32 41 17 22 1016.0 1015.9 0.0
21/12:00pm 21.3 15.9 7.9 42 7.0 WSW 26 41 14 22 1016.3 1016.2 0.0
21/11:30am 19.6 13.9 6.7 43 6.5 W 26 33 14 18 1016.7 1016.6 0.0
21/11:00am 19.1 12.4 5.6 41 6.6 W 30 39 16 21 1016.9 1016.8 0.0
21/10:30am 18.1 12.2 6.0 45 5.9 W 26 37 14 20 1017.0 1016.9 0.0
21/10:00am 17.3 11.2 6.8 50 5.2 W 28 43 15 23 1017.2 1017.1 0.0
21/09:30am 17.2 13.0 7.3 52 5.0 WSW 19 28 10 15 1017.6 1017.5 0.0
21/09:00am 16.7 12.5 8.4 58 4.2 WSW 20 30 11 16 1017.9 1017.8 1.6
21/08:30am 15.2 10.2 8.2 63 3.5 WSW 24 30 13 16 1017.8 1017.7 1.6
21/08:00am 14.3 9.2 7.6 64 3.3 W 24 30 13 16 1017.8 1017.7 1.6
21/07:30am 14.4 9.7 7.7 64 3.3 WSW 22 33 12 18 1017.4 1017.3 1.6
21/07:00am 13.9 9.7 7.4 65 3.2 W 19 26 10 14 1017.3 1017.2 1.6
21/06:30am 13.5 10.1 7.5 67 2.9 WSW 15 26 8 14 1017.0 1016.9 1.6
21/06:00am 13.7 9.5 7.5 66 3.0 WSW 19 28 10 15 1016.9 1016.8 1.6
21/05:30am 14.1 9.8 7.9 66 3.1 WSW 20 30 11 16 1016.6 1016.5 1.6
21/05:00am 13.8 9.2 8.2 69 2.8 W 22 35 12 19 1016.3 1016.2 1.6
21/04:30am 13.9 9.0 8.5 70 2.7 W 24 33 13 18 1016.1 1016.0 1.6
21/04:00am 14.1 8.6 9.1 72 2.5 W 28 39 15 21 1015.9 1015.8 1.6
21/03:30am 14.5 8.4 9.9 74 2.4 W 32 41 17 22 1015.6 1015.5 1.6
21/03:00am 14.6 10.5 10.2 75 2.3 W 22 30 12 16 1016.0 1015.9 1.6
21/02:30am 14.8 11.7 10.2 74 2.4 WSW 17 24 9 13 1016.2 1016.1 1.6
21/02:00am 15.2 11.6 10.6 74 2.4 W 20 28 11 15 1016.4 1016.3 1.6
21/01:30am 15.2 11.9 11.0 76 2.2 W 19 30 10 16 1016.7 1016.6 1.6
21/01:00am 15.3 11.9 11.1 76 2.2 W 20 26 11 14 1016.9 1016.8 1.6
21/12:30am 15.2 12.7 11.2 77 2.1 W 15 22 8 12 1016.9 1016.8 1.6
21/12:00am 15.4 13.1 11.6 78 2.0 W 15 22 8 12 1017.4 1017.3 1.6
 
Date/Time
EST
Temp
°C
App
Temp
°C
Dew
Point
Rel
Hum
%
Delta-T
°C
Wind Press
QNH
hPa
Press
MSL
hPa
Rain
since 9 am
mm
Dir
 
Spd
km/h
Gust
km/h
Spd
kts
Gust
kts
20/11:30pm 15.6 12.6 12.0 79 2.0 W 19 28 10 15 1017.9 1017.8 1.6
20/11:00pm 15.8 12.6 12.0 78 2.1 W 20 39 11 21 1017.2 1017.1 1.6
20/10:30pm 16.0 13.0 12.6 80 1.9 W 20 28 11 15 1017.3 1017.2 1.6
20/10:00pm 16.2 13.2 12.7 80 1.9 W 20 32 11 17 1017.5 1017.4 1.6
20/09:30pm 16.3 11.8 12.7 79 2.0 W 28 39 15 21 1017.9 1017.8 1.6
20/09:00pm 16.6 13.9 13.5 82 1.7 W 20 30 11 16 1018.0 1017.9 1.6
20/08:30pm 16.7 16.4 14.3 86 1.4 W 9 9 5 5 1017.5 1017.4 1.6
20/08:00pm 16.9 16.8 14.0 83 1.6 W 7 13 4 7 1017.9 1017.8 1.6
20/07:30pm 17.4 17.0 15.2 87 1.3 WSW 11 19 6 10 1018.2 1018.1 1.6
20/07:00pm 17.5 17.6 15.5 88 1.2 NW 9 13 5 7 1017.7 1017.6 1.4
20/06:30pm 17.9 16.9 15.7 87 1.3 W 15 20 8 11 1017.9 1017.8 1.4
20/06:00pm 18.2 16.7 16.2 88 1.2 W 19 28 10 15 1017.6 1017.5 1.4
20/05:30pm 18.6 18.6 17.3 92 0.8 WSW 13 17 7 9 1017.4 1017.3 1.4
20/05:00pm 18.9 20.0 17.0 89 1.1 WNW 7 11 4 6 1016.8 1016.7 1.4
20/04:30pm 19.1 17.7 16.9 87 1.3 W 20 28 11 15 1017.1 1017.0 1.2
20/04:09pm 19.7 20.0 18.0 90 1.0 W 13 20 7 11 1017.0 1016.9 0.8
20/04:00pm 19.9 20.3 18.2 90 1.1 W 13 17 7 9 1016.8 1016.7 0.8
20/03:56pm 19.9 20.2 18.0 89 1.2 W 13 17 7 9 1016.7 1016.6 0.8
20/03:38pm 20.2 22.8 18.3 89 1.2 SSW 2 9 1 5 1016.5 1016.4 0.6
20/03:30pm 20.1 22.6 18.2 89 1.2 SSW 2 6 1 3 1016.4 1016.3 0.6
20/03:00pm 20.1 21.9 18.2 89 1.2 SSW 6 9 3 5 1016.3 1016.2 0.6
20/02:57pm 20.0 21.7 18.0 88 1.2 S 6 7 3 4 1016.3 1016.2 0.6
20/02:30pm 20.0 20.8 17.4 85 1.6 SSE 9 11 5 6 1016.3 1016.2 0.6
20/02:00pm 20.2 20.9 18.0 87 1.4 SSE 11 15 6 8 1016.1 1016.0 0.6
20/01:59pm 20.2 20.9 18.0 87 1.4 SSE 11 15 6 8 1016.1 1016.0 0.6
20/01:30pm 20.2 21.8 18.3 89 1.2 SSW 7 9 4 5 1016.9 1016.8 0.6
20/01:00pm 20.3 21.3 17.7 85 1.6 SSE 9 13 5 7 1017.0 1016.9 0.6
20/12:48pm 20.9 22.7 18.8 88 1.3 S 7 11 4 6 1016.6 1016.5 0.6
20/12:30pm 20.8 22.3 18.9 89 1.2 SSW 9 13 5 7 1017.2 1017.1 0.4
20/12:02pm 20.7 22.4 18.5 87 1.4 SW 7 9 4 5 1017.4 1017.3 0.2
20/12:00pm 20.7 22.1 18.6 88 1.3 SW 9 11 5 6 1017.5 1017.4 0.2
20/11:45am 20.6 21.9 18.5 88 1.3 WSW 9 11 5 6 1017.9 1017.8 0.2
20/11:30am 20.7 21.7 18.6 88 1.3 WSW 11 13 6 7 1017.8 1017.7 0.2
20/11:16am 20.8 22.3 18.9 89 1.2 SW 9 13 5 7 1018.0 1017.9 0.0
20/11:00am 20.7 22.0 18.5 87 1.4 WSW 9 13 5 7 1018.2 1018.1 0.0
20/10:30am 20.8 21.8 18.6 87 1.4 WSW 11 15 6 8 1018.3 1018.2 0.0
20/10:21am 20.9 22.0 18.8 88 1.3 WSW 11 15 6 8 1018.5 1018.4 0.0
20/10:00am 20.6 21.9 18.5 88 1.3 WSW 9 11 5 6 1018.6 1018.5 0.0
20/09:50am 20.5 21.8 18.4 88 1.3 WSW 9 15 5 8 1018.6 1018.5 0.0
20/09:30am 20.4 21.0 18.5 89 1.2 WSW 13 17 7 9 1018.8 1018.7 0.0
20/09:17am 20.6 21.3 18.9 90 1.1 WSW 13 15 7 8 1018.8 1018.7 0.0
20/09:00am 20.8 23.1 19.5 92 0.8 WSW 6 9 3 5 1018.5 1018.4 6.8
20/08:59am 20.6 22.8 19.1 91 0.9 W 6 7 3 4 1018.5 1018.4 6.8
20/08:34am 20.0 21.0 18.7 92 0.8 WSW 11 15 6 8 1018.6 1018.5 6.8
20/08:30am 20.0 21.1 18.8 93 0.8 SW 11 15 6 8 1018.7 1018.6 6.8
20/08:00am 19.8 20.8 18.6 93 0.7 SW 11 13 6 7 1018.5 1018.4 6.8
20/07:30am 19.7 21.7 18.7 94 0.6 SW 6 6 3 3 1017.9 1017.8 6.8
20/07:00am 19.5 21.4 18.5 94 0.6 W 6 11 3 6 1018.1 1018.0 6.8
20/06:30am 19.6 21.3 18.6 94 0.6 S 7 9 4 5 1018.1 1018.0 6.8
20/06:00am 19.5 21.4 18.5 94 0.6 SE 6 7 3 4 1018.0 1017.9 6.6
20/05:30am 19.5 20.8 18.5 94 0.6 S 9 13 5 7 1017.8 1017.7 6.4
20/05:00am 19.4 20.3 18.4 94 0.6 SSW 11 13 6 7 1018.0 1017.9 5.6
20/04:30am 19.4 20.6 18.2 93 0.7 SSW 9 13 5 7 1017.8 1017.7 5.4
20/04:00am 19.6 20.0 18.1 91 0.9 S 13 19 7 10 1017.4 1017.3 5.4
20/03:30am 19.8 19.4 18.8 94 0.6 SSE 19 24 10 13 1017.5 1017.4 5.4
20/03:00am 19.9 19.7 18.6 92 0.8 SSW 17 22 9 12 1017.4 1017.3 5.2
20/02:30am 20.3 20.7 19.1 93 0.8 SW 15 24 8 13 1017.4 1017.3 4.6
20/02:26am 20.3 21.2 19.3 94 0.6 SW 13 17 7 9 1017.4 1017.3 4.4
20/02:09am 20.2 19.6 18.9 92 0.8 WSW 20 26 11 14 1017.5 1017.4 3.4
20/02:07am 20.4 20.1 19.1 92 0.8 WSW 19 24 10 13 1017.4 1017.3 2.8
20/02:00am 21.0 21.3 19.5 91 1.0 WSW 17 22 9 12 1017.5 1017.4 0.6
20/01:36am 21.5 23.2 20.1 92 0.9 W 11 15 6 8 1017.1 1017.0 0.2
20/01:30am 21.5 23.2 20.1 92 0.9 WNW 11 13 6 7 1017.1 1017.0 0.2
20/01:00am 21.7 24.5 19.6 88 1.3 NW 4 11 2 6 1017.5 1017.4 0.2
20/12:30am 21.8 23.8 18.8 83 1.9 S 6 9 3 5 1017.4 1017.3 0.2
20/12:20am 21.8 23.6 18.8 83 1.9 S 7 9 4 5 1017.2 1017.1 0.2
20/12:00am 21.9 23.4 18.9 83 1.9 S 9 13 5 7 1017.5 1017.4 0.2
 
Date/Time
EST
Temp
°C
App
Temp
°C
Dew
Point
Rel
Hum
%
Delta-T
°C
Wind Press
QNH
hPa
Press
MSL
hPa
Rain
since 9 am
mm
Dir
 
Spd
km/h
Gust
km/h
Spd
kts
Gust
kts
19/11:59pm 21.9 23.4 18.9 83 1.9 S 9 13 5 7 1017.5 1017.4 0.2
19/11:54pm 21.6 23.1 18.8 84 1.8 SSW 9 13 5 7 1017.6 1017.5 0.2
19/11:39pm 21.7 23.7 19.1 85 1.6 SW 7 11 4 6 1018.0 1017.9 0.2
19/11:30pm 21.5 23.6 18.9 85 1.6 SW 6 7 3 4 1018.1 1018.0 0.2
19/11:00pm 21.8 22.5 18.8 83 1.9 S 13 15 7 8 1018.3 1018.2 0.2
19/10:30pm 21.9 23.1 19.1 84 1.8 S 11 15 6 8 1018.3 1018.2 0.2
19/10:00pm 22.2 23.6 19.6 85 1.7 S 11 13 6 7 1018.4 1018.3 0.2
19/09:30pm 22.2 23.3 19.6 85 1.7 S 13 17 7 9 1018.5 1018.4 0.2
19/09:00pm 22.5 24.5 19.9 85 1.7 S 9 11 5 6 1018.6 1018.5 0.2
19/08:30pm 22.5 24.7 19.7 84 1.8 SSW 7 7 4 4 1018.5 1018.4 0.2
19/08:00pm 22.6 24.9 19.8 84 1.8 SSE 7 9 4 5 1018.2 1018.1 0.2
19/07:30pm 22.7 25.9 19.7 83 1.9 SSE 2 6 1 3 1018.3 1018.2 0.2
19/07:00pm 23.3 27.3 20.6 85 1.8 CALM 0 4 0 2 1018.2 1018.1 0.2
19/06:30pm 23.0 25.2 20.3 85 1.7 N 9 9 5 5 1017.5 1017.4 0.2
19/06:00pm 23.4 25.2 20.3 83 2.0 NNE 11 15 6 8 1017.2 1017.1 0.2
19/05:30pm 23.8 25.4 19.9 79 2.5 NNE 11 15 6 8 1017.0 1016.9 0.2
19/05:00pm 24.1 25.2 19.6 76 2.9 NNE 13 15 7 8 1016.8 1016.7 0.2
19/04:30pm 25.2 27.2 19.1 69 3.9 NE 7 11 4 6 1016.6 1016.5 0.2
19/04:00pm 25.7 26.8 18.1 63 4.8 NW 9 11 5 6 1016.1 1016.0 0.2
19/03:30pm 25.9 26.3 18.1 62 4.9 WSW 13 20 7 11 1016.1 1016.0 0.2
19/03:00pm 27.4 28.7 18.4 58 5.7 NW 9 13 5 7 1016.1 1016.0 0.2
19/02:30pm 28.4 29.5 18.8 56 6.2 NNW 11 17 6 9 1016.2 1016.1 0.2
19/02:00pm 28.3 28.8 17.5 52 6.8 WNW 11 17 6 9 1016.1 1016.0 0.2

Other Formats:

Comma delimited format used in spreadsheet applications
http://www.bom.gov.au/fwo/IDQ60801/IDQ60801.94575.axf

JavaScript Object Notation format (JSON) in row-major order
http://www.bom.gov.au/fwo/IDQ60801/IDQ60801.94575.json